Time;durP1;ratioP1;P1;durP2;ratioP2;P2;SDS_P1;SDS_P2;PMS_P1;PMS_P2;Temp;Humidity;BMP_temperature;BMP_pressure;BME280_temperature;BME280_humidity;BME280_pressure;Samples;Min_cycle;Max_cycle;Signal;HPM_P1;HPM_P2
2021/08/16 00:01:14;;;;;;;;;3.33;3.00;;;;;21.61;56.04;101112.84;5056708;27;45881;-63
2021/08/16 00:03:39;;;;;;;;;6.00;3.00;;;;;21.62;54.63;101125.19;5056849;28;45534;-62
2021/08/16 00:06:04;;;;;;;;;7.00;3.33;;;;;21.64;54.33;101120.50;5056096;28;45948;-62
2021/08/16 00:08:30;;;;;;;;;6.67;3.67;;;;;21.62;53.95;101127.88;5056008;28;45387;-64
2021/08/16 00:10:55;;;;;;;;;7.00;3.00;;;;;21.57;54.16;101126.53;5055946;28;45360;-63
2021/08/16 00:13:24;;;;;;;;;3.67;3.00;;;;;21.53;53.08;101132.41;5054296;28;45348;-63
2021/08/16 00:15:49;;;;;;;;;6.33;2.33;;;;;21.47;53.23;101133.94;5056021;28;47191;-63
2021/08/16 00:18:15;;;;;;;;;2.67;1.00;;;;;21.42;53.93;101136.31;5037534;28;45586;-62
2021/08/16 00:20:40;;;;;;;;;5.00;3.00;;;;;21.37;53.25;101136.00;5036503;28;45536;-65
2021/08/16 00:23:05;;;;;;;;;4.33;3.00;;;;;21.31;53.41;101142.84;5054836;28;45465;-64
2021/08/16 00:25:31;;;;;;;;;2.67;2.67;;;;;21.27;53.54;101141.53;5055041;28;47208;-62
2021/08/16 00:27:56;;;;;;;;;3.00;2.00;;;;;21.24;52.77;101141.91;5055693;28;47000;-62
2021/08/16 00:30:22;;;;;;;;;3.00;2.00;;;;;21.22;53.06;101128.69;5055197;28;45268;-63
2021/08/16 00:32:49;;;;;;;;;3.00;2.00;;;;;21.22;53.11;101128.69;5053914;28;45314;-63
2021/08/16 00:35:14;;;;;;;;;4.00;4.00;;;;;21.26;54.38;101127.38;5056691;28;46229;-62
2021/08/16 00:37:39;;;;;;;;;1.33;1.00;;;;;21.35;53.97;101119.31;5037218;28;46124;-63
2021/08/16 00:40:05;;;;;;;;;3.33;1.00;;;;;21.35;52.96;101121.97;5057250;28;46198;-63
2021/08/16 00:42:31;;;;;;;;;3.00;1.33;;;;;21.30;52.87;101119.00;5055164;28;45517;-63
2021/08/16 00:44:56;;;;;;;;;3.67;2.00;;;;;21.24;52.77;101116.00;5055308;28;46195;-62
2021/08/16 00:47:22;;;;;;;;;5.00;1.67;;;;;21.21;52.98;101115.53;5054730;28;45415;-63
2021/08/16 00:49:47;;;;;;;;;2.00;2.00;;;;;21.16;52.68;101101.84;5055292;28;45598;-63
2021/08/16 00:52:13;;;;;;;;;3.00;2.67;;;;;21.13;52.83;101111.06;5055043;28;45532;-63
2021/08/16 00:54:39;;;;;;;;;2.00;1.67;;;;;21.10;53.03;101108.75;5054617;28;45590;-66
2021/08/16 00:57:06;;;;;;;;;3.00;2.00;;;;;21.10;52.38;101108.75;5056105;28;45345;-65
2021/08/16 00:59:32;;;;;;;;;2.33;2.00;;;;;21.07;52.36;101109.09;5054443;28;45399;-68
2021/08/16 01:01:58;;;;;;;;;2.33;1.33;;;;;21.08;51.83;101110.75;5055942;28;45617;-67
2021/08/16 01:04:28;;;;;;;;;3.00;1.00;;;;;21.06;51.36;101105.56;5056519;28;45380;-67
2021/08/16 01:06:53;;;;;;;;;2.67;2.00;;;;;21.04;51.32;101106.75;5055235;28;45458;-66
2021/08/16 01:09:19;;;;;;;;;3.00;2.00;;;;;21.00;50.82;101100.94;5055026;28;45332;-68
2021/08/16 01:11:49;;;;;;;;;2.33;1.33;;;;;20.98;51.01;101105.63;5054870;28;45408;-67
2021/08/16 01:14:15;;;;;;;;;3.67;1.33;;;;;20.99;50.92;101103.78;5055262;28;46142;-67
2021/08/16 01:16:40;;;;;;;;;4.33;1.33;;;;;20.99;51.11;101098.44;5054616;28;45438;-66
2021/08/16 01:19:05;;;;;;;;;4.33;1.33;;;;;20.95;50.84;101100.63;5037330;28;45517;-69
2021/08/16 01:21:31;;;;;;;;;1.00;1.00;;;;;20.89;50.19;101094.13;5058187;27;45469;-67
2021/08/16 01:23:56;;;;;;;;;2.00;1.00;;;;;20.84;50.84;101096.50;5058742;28;46091;-66
2021/08/16 01:26:22;;;;;;;;;1.00;1.00;;;;;20.85;50.57;101100.84;5064077;27;45668;-66
2021/08/16 01:28:48;;;;;;;;;2.00;0.00;;;;;20.82;50.61;101098.50;5052561;28;45415;-65
2021/08/16 01:31:13;;;;;;;;;1.67;1.00;;;;;20.76;50.75;101102.69;5047425;28;45548;-64
2021/08/16 01:33:39;;;;;;;;;3.67;1.67;;;;;20.72;51.00;101097.84;5052688;28;45404;-65
2021/08/16 01:36:04;;;;;;;;;3.33;0.00;;;;;20.68;50.81;101109.84;5055805;28;45870;-65
2021/08/16 01:38:33;;;;;;;;;2.33;0.67;;;;;20.65;50.79;101105.69;5055111;28;45697;-66
2021/08/16 01:40:59;;;;;;;;;0.00;0.00;;;;;20.60;51.33;101100.88;5055517;28;45534;-64
2021/08/16 01:43:25;;;;;;;;;1.00;1.00;;;;;20.60;50.75;101106.22;5058421;28;49340;-66
2021/08/16 01:45:52;;;;;;;;;2.00;1.00;;;;;20.60;51.19;101116.91;5054916;28;45374;-67
2021/08/16 01:48:18;;;;;;;;;3.00;1.67;;;;;20.60;51.30;101111.56;5058135;28;45545;-68
2021/08/16 01:50:43;;;;;;;;;0.00;0.00;;;;;20.56;51.27;101112.06;5057304;28;45439;-66
2021/08/16 01:53:10;;;;;;;;;2.33;2.00;;;;;20.55;51.69;101115.72;5039794;28;46907;-71
2021/08/16 01:55:35;;;;;;;;;1.00;1.00;;;;;20.53;51.19;101107.91;5057976;28;45219;-66
2021/08/16 01:58:00;;;;;;;;;1.33;1.00;;;;;20.50;51.38;101110.06;5058500;28;45897;-66
2021/08/16 02:00:26;;;;;;;;;1.00;1.00;;;;;20.44;51.96;101098.25;5057426;28;45447;-67
2021/08/16 02:02:51;;;;;;;;;1.00;1.00;;;;;20.45;51.63;101102.59;5057565;28;46654;-68
2021/08/16 02:05:17;;;;;;;;;2.33;1.00;;;;;20.43;51.84;101102.75;5059225;28;45452;-68
2021/08/16 02:07:42;;;;;;;;;3.00;2.00;;;;;20.44;51.55;101104.41;5057474;28;45386;-67
2021/08/16 02:10:08;;;;;;;;;1.00;1.00;;;;;20.38;52.23;101107.78;5057885;28;45346;-66
2021/08/16 02:12:34;;;;;;;;;2.00;1.00;;;;;20.37;52.08;101110.59;5057791;28;46170;-67
2021/08/16 02:14:59;;;;;;;;;1.00;1.00;;;;;20.36;52.10;101107.09;5058196;28;45386;-66
2021/08/16 02:17:24;;;;;;;;;3.33;1.33;;;;;20.37;52.20;101098.09;5057349;28;45439;-67
2021/08/16 02:19:52;;;;;;;;;1.33;1.00;;;;;20.41;51.98;101114.59;5039622;28;45574;-66
2021/08/16 02:22:17;;;;;;;;;2.67;0.33;;;;;20.42;52.13;101116.25;5057514;28;46153;-66
2021/08/16 02:24:43;;;;;;;;;1.00;1.00;;;;;20.44;52.67;101108.91;5057980;28;45359;-66
2021/08/16 02:27:08;;;;;;;;;3.00;2.00;;;;;20.49;52.22;101105.75;5048828;28;45430;-67
2021/08/16 02:29:34;;;;;;;;;1.00;1.00;;;;;20.48;52.61;101112.09;5060901;28;45496;-66
2021/08/16 02:32:00;;;;;;;;;1.00;1.00;;;;;20.62;53.04;101106.03;5026849;28;47560;-63
2021/08/16 02:34:25;;;;;;;;;5.67;2.00;;;;;20.66;53.83;101103.88;5063309;28;45269;-65
2021/08/16 02:36:51;;;;;;;;;1.33;1.33;;;;;20.78;53.14;101110.53;5061596;28;45345;-64
2021/08/16 02:39:16;;;;;;;;;1.67;1.00;;;;;20.79;53.09;101112.19;5059215;28;45340;-64
2021/08/16 02:41:41;;;;;;;;;3.00;2.00;;;;;20.69;53.29;101106.19;5056634;28;45547;-64
2021/08/16 02:44:07;;;;;;;;;5.00;1.00;;;;;20.74;52.98;101109.22;5057275;27;45675;-63
2021/08/16 02:46:32;;;;;;;;;3.00;1.00;;;;;20.77;53.33;101103.50;5041328;28;45616;-63
2021/08/16 02:48:58;;;;;;;;;2.00;2.00;;;;;20.67;52.77;101108.22;5057867;28;45531;-64
2021/08/16 02:51:25;;;;;;;;;2.00;2.00;;;;;20.67;53.92;101105.53;5056665;28;45301;-63
2021/08/16 02:53:51;;;;;;;;;2.00;2.00;;;;;20.65;53.58;101107.53;5056438;28;45305;-63
2021/08/16 02:56:16;;;;;;;;;2.67;2.33;;;;;20.59;53.51;101101.88;5056292;28;45454;-64
2021/08/16 02:58:42;;;;;;;;;3.00;1.00;;;;;20.70;54.58;101099.88;5057050;28;45520;-64
2021/08/16 03:01:07;;;;;;;;;3.67;2.00;;;;;20.83;53.20;101107.34;5056962;27;45800;-64
2021/08/16 03:03:32;;;;;;;;;1.00;1.00;;;;;20.78;53.45;101094.50;5058207;28;47307;-64
2021/08/16 03:05:57;;;;;;;;;3.00;1.00;;;;;20.70;53.41;101107.91;5040952;28;45364;-64
2021/08/16 03:08:23;;;;;;;;;1.33;1.00;;;;;20.64;54.15;101105.88;5060009;28;45314;-64
2021/08/16 03:10:48;;;;;;;;;3.00;1.33;;;;;20.69;53.76;101111.53;5060230;28;46089;-64
2021/08/16 03:13:13;;;;;;;;;6.00;2.00;;;;;20.59;54.33;101107.22;5057810;28;45564;-63
2021/08/16 03:15:39;;;;;;;;;2.00;2.00;;;;;20.66;54.85;101111.88;5057613;28;48273;-64
2021/08/16 03:18:04;;;;;;;;;2.67;1.33;;;;;20.75;54.29;101106.38;5056862;28;45460;-63
2021/08/16 03:20:30;;;;;;;;;6.33;1.67;;;;;20.68;54.63;101110.72;5055922;28;46206;-65
2021/08/16 03:22:55;;;;;;;;;2.00;1.00;;;;;20.65;54.68;101099.53;5057009;28;45218;-64
2021/08/16 03:25:20;;;;;;;;;3.00;2.00;;;;;20.82;54.23;101101.16;5039999;28;45662;-63
2021/08/16 03:27:46;;;;;;;;;1.67;1.67;;;;;20.74;54.72;101110.03;5040302;28;45522;-63
2021/08/16 03:30:13;;;;;;;;;1.33;1.00;;;;;20.68;54.12;101109.84;5056431;28;46063;-64
2021/08/16 03:32:38;;;;;;;;;3.33;2.00;;;;;20.54;54.36;101106.91;5055794;28;45748;-64
2021/08/16 03:35:04;;;;;;;;;2.00;2.00;;;;;20.50;55.28;101104.72;5057410;28;45489;-64
2021/08/16 03:37:34;;;;;;;;;2.00;2.00;;;;;20.69;55.93;101107.03;5057762;28;45529;-64
2021/08/16 03:40:00;;;;;;;;;4.00;3.67;;;;;20.83;55.66;101097.50;5058490;28;46198;-64
2021/08/16 03:42:25;;;;;;;;;2.33;2.00;;;;;20.87;55.06;101104.16;5058740;28;45379;-64
2021/08/16 03:44:51;;;;;;;;;3.00;2.33;;;;;20.83;55.68;101100.16;5039142;28;45417;-65
2021/08/16 03:47:17;;;;;;;;;2.33;2.00;;;;;20.90;55.69;101106.50;5057368;28;45332;-64
2021/08/16 03:49:42;;;;;;;;;4.00;2.00;;;;;21.01;55.72;101099.09;5055645;28;47083;-64
2021/08/16 03:52:08;;;;;;;;;4.33;2.00;;;;;21.05;55.39;101095.06;5057790;28;45432;-64
2021/08/16 03:54:33;;;;;;;;;4.67;2.00;;;;;21.00;54.76;101095.59;5055785;28;45373;-64
2021/08/16 03:56:58;;;;;;;;;4.00;3.00;;;;;20.91;55.01;101100.16;5068097;27;45448;-67
2021/08/16 03:59:24;;;;;;;;;4.00;2.33;;;;;20.93;55.30;101098.13;5056734;28;47025;-63
2021/08/16 04:01:49;;;;;;;;;4.00;3.00;;;;;20.81;54.93;101096.84;5057907;28;45602;-65
2021/08/16 04:04:15;;;;;;;;;5.00;4.00;;;;;20.62;54.78;101098.03;5054298;28;45559;-64
2021/08/16 04:06:40;;;;;;;;;6.00;3.00;;;;;20.58;55.56;101105.53;5056312;28;45634;-64
2021/08/16 04:09:06;;;;;;;;;5.33;3.00;;;;;20.48;55.88;101110.25;5056374;28;46155;-64
2021/08/16 04:11:31;;;;;;;;;3.67;2.00;;;;;20.49;55.66;101106.56;5054838;28;45355;-64
2021/08/16 04:13:56;;;;;;;;;2.33;2.00;;;;;20.60;55.89;101113.38;5056469;28;45585;-64
2021/08/16 04:16:22;;;;;;;;;4.33;2.33;;;;;20.62;55.83;101106.03;5055555;28;45345;-65
2021/08/16 04:18:48;;;;;;;;;5.67;3.00;;;;;20.76;56.44;101117.88;5055474;28;45487;-64
2021/08/16 04:21:13;;;;;;;;;4.00;2.00;;;;;20.77;54.56;101116.88;5056000;28;45552;-64
2021/08/16 04:23:38;;;;;;;;;5.33;2.00;;;;;20.51;54.52;101123.25;5055514;28;45421;-64
2021/08/16 04:26:04;;;;;;;;;1.67;1.67;;;;;20.32;55.11;101120.94;5056410;28;45317;-63
2021/08/16 04:28:29;;;;;;;;;3.00;3.00;;;;;20.12;55.67;101123.94;5059294;28;47026;-64
2021/08/16 04:30:54;;;;;;;;;4.00;3.00;;;;;20.01;55.25;101129.63;5056120;27;45434;-64
2021/08/16 04:33:24;;;;;;;;;3.67;3.00;;;;;19.91;56.38;101125.28;5056434;28;45707;-63
2021/08/16 04:35:49;;;;;;;;;4.00;1.00;;;;;19.91;56.07;101125.28;5055518;28;45607;-64
2021/08/16 04:38:19;;;;;;;;;4.00;2.00;;;;;19.91;56.32;101114.59;5055342;28;45321;-63
2021/08/16 04:40:45;;;;;;;;;2.33;1.33;;;;;20.00;56.11;101120.78;5055392;28;45536;-64
2021/08/16 04:43:10;;;;;;;;;2.00;1.00;;;;;19.95;56.51;101115.97;5056410;28;45367;-64
2021/08/16 04:45:36;;;;;;;;;3.00;2.00;;;;;20.03;56.05;101124.94;5055663;28;45444;-63
2021/08/16 04:48:01;;;;;;;;;1.67;1.67;;;;;20.10;56.31;101123.28;5055306;28;47037;-65
2021/08/16 04:50:26;;;;;;;;;2.33;1.00;;;;;20.04;56.08;101124.78;5055006;28;45436;-65
2021/08/16 04:52:52;;;;;;;;;3.00;3.00;;;;;19.94;56.41;101126.78;5055871;28;45732;-64
2021/08/16 04:55:17;;;;;;;;;2.33;0.67;;;;;19.92;55.81;101132.28;5055540;28;45392;-62
2021/08/16 04:57:43;;;;;;;;;1.33;1.33;;;;;19.85;56.83;101130.44;5051131;28;48049;-65
2021/08/16 05:00:11;;;;;;;;;3.33;2.33;;;;;19.91;56.84;101130.59;5055938;28;45325;-64
2021/08/16 05:02:36;;;;;;;;;1.33;1.00;;;;;19.92;55.91;101134.13;5049244;28;45397;-63
2021/08/16 05:05:10;;;;;;;;;4.00;1.00;;;;;19.86;56.28;101143.63;5055588;28;45306;-64
2021/08/16 05:07:35;;;;;;;;;2.00;1.00;;;;;19.74;56.18;101144.91;5056731;28;45467;-63
2021/08/16 05:10:01;;;;;;;;;4.00;2.00;;;;;19.79;57.62;101140.72;5055092;28;45399;-65
2021/08/16 05:12:27;;;;;;;;;1.67;1.00;;;;;19.89;57.46;101137.94;5055440;28;45447;-62
2021/08/16 05:14:52;;;;;;;;;0.00;0.00;;;;;19.94;56.83;101130.28;5055027;28;45432;-64
2021/08/16 05:17:18;;;;;;;;;1.00;1.00;;;;;20.06;56.53;101136.13;5057758;28;46077;-64
2021/08/16 05:19:44;;;;;;;;;2.67;1.00;;;;;19.98;56.39;101135.28;5058877;28;45435;-64
2021/08/16 05:22:10;;;;;;;;;2.00;2.00;;;;;20.02;56.87;101136.59;5058546;28;45491;-65
2021/08/16 05:24:37;;;;;;;;;3.33;2.00;;;;;20.05;56.53;101139.78;5057763;28;45360;-63
2021/08/16 05:27:03;;;;;;;;;1.33;1.33;;;;;20.06;56.29;101143.31;5058383;28;46936;-62
2021/08/16 05:29:30;;;;;;;;;2.67;2.00;;;;;20.13;56.09;101138.94;5057831;28;45420;-64
2021/08/16 05:31:57;;;;;;;;;1.33;1.00;;;;;20.04;55.83;101151.44;5063883;27;45405;-64
2021/08/16 05:34:22;;;;;;;;;2.33;1.00;;;;;19.99;56.72;101158.28;5057880;28;45506;-64
2021/08/16 05:36:48;;;;;;;;;3.67;2.00;;;;;20.04;56.19;101155.94;5058247;27;47186;-63
2021/08/16 05:39:13;;;;;;;;;4.67;1.33;;;;;19.98;56.28;101151.28;5059076;28;45344;-63
2021/08/16 05:41:38;;;;;;;;;2.33;1.00;;;;;19.97;56.00;101162.94;5059605;28;45330;-64
2021/08/16 05:44:04;;;;;;;;;1.00;1.00;;;;;19.92;55.94;101161.59;5061746;28;45611;-64
2021/08/16 05:46:29;;;;;;;;;1.00;1.00;;;;;19.85;55.93;101167.75;5041481;28;46246;-65
2021/08/16 05:48:55;;;;;;;;;3.00;2.00;;;;;19.82;56.26;101168.91;5058711;28;45525;-64
2021/08/16 05:51:20;;;;;;;;;1.00;1.00;;;;;19.88;56.53;101162.94;5058688;28;45515;-64
2021/08/16 05:53:45;;;;;;;;;1.33;1.33;;;;;19.91;57.07;101173.25;5057402;28;45491;-64
2021/08/16 05:56:11;;;;;;;;;2.67;1.00;;;;;19.90;55.87;101176.94;5057959;28;45956;-64
2021/08/16 05:58:36;;;;;;;;;1.67;1.67;;;;;19.77;56.29;101179.19;5057878;28;45308;-63
2021/08/16 06:01:02;;;;;;;;;4.00;4.00;;;;;19.61;56.30;101180.84;5039369;28;45498;-64
2021/08/16 06:03:27;;;;;;;;;1.00;1.00;;;;;19.65;56.91;101183.19;5059770;28;45542;-65
2021/08/16 06:05:52;;;;;;;;;1.33;1.00;;;;;19.64;57.39;101187.66;5057519;28;52949;-65
2021/08/16 06:08:18;;;;;;;;;3.00;2.00;;;;;19.60;56.88;101179.19;5057388;28;45439;-65
2021/08/16 06:10:43;;;;;;;;;0.67;0.67;;;;;19.56;57.13;101180.47;5057014;28;45503;-64
2021/08/16 06:13:08;;;;;;;;;2.00;2.00;;;;;19.70;57.01;101175.53;5058050;28;45365;-63
2021/08/16 06:15:34;;;;;;;;;2.00;2.00;;;;;19.72;57.42;101179.72;5057585;28;46229;-64
2021/08/16 06:17:59;;;;;;;;;2.00;1.00;;;;;19.67;56.64;101183.84;5057993;27;45341;-64
2021/08/16 06:20:24;;;;;;;;;3.00;3.00;;;;;19.60;57.21;101181.00;5057101;28;45742;-64
2021/08/16 06:22:50;;;;;;;;;7.67;6.33;;;;;19.70;57.49;101188.88;5057383;28;45408;-65
2021/08/16 06:25:15;;;;;;;;;2.00;1.33;;;;;19.83;57.12;101197.25;5056427;28;48176;-64
2021/08/16 06:27:41;;;;;;;;;1.67;1.67;;;;;19.77;57.08;101189.88;5056480;28;45556;-64
2021/08/16 06:30:07;;;;;;;;;2.33;1.00;;;;;19.74;56.90;101182.22;5056358;27;45418;-64
2021/08/16 06:32:35;;;;;;;;;1.00;1.00;;;;;19.81;57.09;101185.91;5057317;28;45414;-64
2021/08/16 06:35:01;;;;;;;;;1.00;1.00;;;;;19.93;57.37;101181.94;5060533;28;47117;-65
2021/08/16 06:37:26;;;;;;;;;2.00;1.00;;;;;20.03;56.71;101191.63;5061484;28;45555;-63
2021/08/16 06:39:52;;;;;;;;;2.00;2.00;;;;;19.93;56.45;101192.59;5058093;28;45365;-64
2021/08/16 06:42:19;;;;;;;;;2.00;1.00;;;;;19.87;56.95;101203.09;5058602;28;45371;-64
2021/08/16 06:44:44;;;;;;;;;2.00;0.33;;;;;19.89;56.65;101191.28;5059339;28;46228;-65
2021/08/16 06:47:10;;;;;;;;;1.00;1.00;;;;;19.91;56.62;101191.09;5059104;28;45434;-64
2021/08/16 06:49:36;;;;;;;;;0.00;0.00;;;;;19.90;56.88;101203.59;5059894;28;45602;-64
2021/08/16 06:52:01;;;;;;;;;3.33;1.33;;;;;19.93;56.99;101202.44;5059389;28;45371;-64
2021/08/16 06:54:27;;;;;;;;;1.67;1.67;;;;;20.00;57.24;101207.94;5060239;28;46101;-65
2021/08/16 06:56:52;;;;;;;;;1.00;1.00;;;;;19.94;56.75;101210.28;5057100;28;45325;-63
2021/08/16 06:59:17;;;;;;;;;2.00;2.00;;;;;19.95;57.51;101206.63;5057910;28;45352;-64
2021/08/16 07:01:44;;;;;;;;;2.00;1.00;;;;;20.06;56.86;101207.28;5057649;28;45458;-64
2021/08/16 07:04:09;;;;;;;;;1.00;1.00;;;;;20.05;56.38;101205.63;5057672;28;46372;-63
2021/08/16 07:06:34;;;;;;;;;3.33;1.00;;;;;19.98;56.56;101205.47;5057655;28;45263;-65
2021/08/16 07:09:00;;;;;;;;;1.67;1.00;;;;;19.99;57.11;101216.94;5039528;28;45291;-63
2021/08/16 07:11:25;;;;;;;;;3.33;0.00;;;;;20.20;57.97;101208.47;5040868;28;45530;-63
2021/08/16 07:13:50;;;;;;;;;1.00;0.00;;;;;20.28;57.25;101203.97;5057470;28;45629;-63
2021/08/16 07:16:16;;;;;;;;;0.00;0.00;;;;;20.31;56.31;101209.97;5056996;28;45389;-63
2021/08/16 07:18:41;;;;;;;;;0.00;0.00;;;;;20.22;56.88;101215.28;5056470;27;45310;-64
2021/08/16 07:21:06;;;;;;;;;1.33;1.00;;;;;20.17;56.81;101220.28;5056582;28;45460;-64
2021/08/16 07:23:35;;;;;;;;;2.00;0.33;;;;;20.05;56.97;101221.63;5056368;28;47036;-63
2021/08/16 07:26:01;;;;;;;;;0.00;0.00;;;;;19.98;57.15;101216.13;5056219;28;45566;-63
2021/08/16 07:28:27;;;;;;;;;0.00;0.00;;;;;19.91;57.73;101217.75;5057124;28;45667;-64
2021/08/16 07:30:53;;;;;;;;;0.67;0.33;;;;;19.83;57.54;101221.25;5056277;27;45605;-63
2021/08/16 07:33:19;;;;;;;;;1.00;1.00;;;;;19.81;57.56;101223.22;5056824;28;45511;-64
2021/08/16 07:35:44;;;;;;;;;1.00;1.00;;;;;19.97;58.00;101222.44;5056202;28;45350;-63
2021/08/16 07:38:09;;;;;;;;;1.00;1.00;;;;;20.06;58.21;101225.97;5057010;28;45503;-64
2021/08/16 07:40:35;;;;;;;;;3.33;1.00;;;;;20.07;57.89;101216.94;5055897;28;45381;-65
2021/08/16 07:43:00;;;;;;;;;1.00;1.00;;;;;20.12;58.16;101222.63;5057163;28;46088;-64
2021/08/16 07:45:26;;;;;;;;;0.00;0.00;;;;;20.14;58.19;101225.97;5058629;28;45471;-64
2021/08/16 07:47:52;;;;;;;;;2.00;0.00;;;;;20.10;58.55;101228.13;5056712;28;45504;-65
2021/08/16 07:50:17;;;;;;;;;0.67;0.67;;;;;20.14;57.94;101228.63;5056829;28;45502;-64
2021/08/16 07:52:43;;;;;;;;;0.67;0.67;;;;;20.05;58.36;101227.78;5056552;28;45834;-62
2021/08/16 07:55:10;;;;;;;;;0.33;0.33;;;;;20.05;58.96;101232.28;5056611;28;45684;-65
2021/08/16 07:57:36;;;;;;;;;1.00;1.00;;;;;20.24;58.70;101231.16;5038994;28;45489;-65
2021/08/16 08:00:06;;;;;;;;;0.00;0.00;;;;;20.30;58.87;101230.47;5056954;28;45369;-64
2021/08/16 08:02:39;;;;;;;;;1.00;1.00;;;;;20.45;57.99;101228.00;5055874;28;46955;-66
2021/08/16 08:05:06;;;;;;;;;0.00;0.00;;;;;20.31;58.01;101234.00;5059450;28;45528;-65
2021/08/16 08:07:31;;;;;;;;;2.00;0.00;;;;;20.20;58.22;101235.13;5056794;28;45551;-64
2021/08/16 08:09:57;;;;;;;;;1.00;0.00;;;;;20.05;58.25;101232.28;5056507;28;45231;-63
2021/08/16 08:12:22;;;;;;;;;1.00;0.00;;;;;19.94;58.29;101242.28;5036665;28;46188;-66
2021/08/16 08:14:47;;;;;;;;;0.00;0.00;;;;;19.83;58.55;101239.91;5058773;28;45337;-64
2021/08/16 08:17:13;;;;;;;;;1.00;1.00;;;;;19.75;59.06;101238.00;5059036;28;45206;-65
2021/08/16 08:19:38;;;;;;;;;1.00;0.00;;;;;19.68;59.64;101238.81;5058999;28;45448;-65
2021/08/16 08:22:03;;;;;;;;;1.00;1.00;;;;;19.75;59.89;101245.19;5057084;28;47267;-64
2021/08/16 08:24:29;;;;;;;;;0.00;0.00;;;;;19.83;59.36;101239.91;5056194;28;45322;-65
2021/08/16 08:26:54;;;;;;;;;0.67;0.67;;;;;19.91;59.54;101242.56;5057503;28;45360;-65
2021/08/16 08:29:20;;;;;;;;;2.33;0.00;;;;;20.05;59.72;101250.97;5055988;28;45301;-65
2021/08/16 08:31:45;;;;;;;;;1.33;0.00;;;;;20.22;59.34;101244.63;5034676;28;47071;-64
2021/08/16 08:34:10;;;;;;;;;1.33;0.00;;;;;20.28;58.77;101251.97;5047361;28;45345;-64
2021/08/16 08:36:36;;;;;;;;;3.33;1.00;;;;;20.27;58.78;101252.97;5056779;28;45408;-64
2021/08/16 08:39:01;;;;;;;;;0.00;0.00;;;;;20.17;58.44;101246.97;5055640;28;45421;-64
2021/08/16 08:41:29;;;;;;;;;0.00;0.00;;;;;20.19;59.00;101244.97;5055172;28;46348;-64
2021/08/16 08:43:55;;;;;;;;;0.00;0.00;;;;;20.09;59.01;101254.97;5055662;28;45554;-65
2021/08/16 08:46:20;;;;;;;;;0.00;0.00;;;;;20.09;59.06;101254.97;5055737;28;45580;-64
2021/08/16 08:48:46;;;;;;;;;0.67;0.00;;;;;20.03;58.95;101252.94;5054787;28;45529;-65
2021/08/16 08:51:12;;;;;;;;;1.00;1.00;;;;;19.98;59.42;101244.59;5055523;28;48853;-64
2021/08/16 08:53:37;;;;;;;;;1.33;1.00;;;;;20.01;59.05;101246.94;5050684;28;45470;-65
2021/08/16 08:56:04;;;;;;;;;0.67;0.67;;;;;20.06;59.47;101256.13;5056102;28;45537;-64
2021/08/16 08:58:29;;;;;;;;;2.00;1.00;;;;;20.09;59.10;101260.28;5056167;28;45493;-64
2021/08/16 09:00:55;;;;;;;;;0.67;0.67;;;;;20.07;59.41;101251.59;5055713;28;46154;-65
2021/08/16 09:03:20;;;;;;;;;2.00;1.67;;;;;20.06;59.42;101260.63;5055813;28;45729;-64
2021/08/16 09:05:47;;;;;;;;;1.00;1.00;;;;;20.05;59.64;101261.63;5055420;28;45591;-66
2021/08/16 09:08:31;;;;;;;;;0.00;0.00;;;;;20.01;59.25;101262.94;5055951;28;45578;-64
2021/08/16 09:11:07;;;;;;;;;0.33;0.33;;;;;19.93;59.89;101261.09;5055767;28;46593;-65
2021/08/16 09:13:32;;;;;;;;;0.00;0.00;;;;;19.87;59.68;101257.22;5056179;28;45405;-64
2021/08/16 09:16:07;;;;;;;;;1.00;0.00;;;;;19.89;59.53;101265.91;5056535;28;45502;-65
2021/08/16 09:18:32;;;;;;;;;1.00;1.00;;;;;19.98;59.49;101268.59;5057350;28;45610;-65
2021/08/16 09:20:59;;;;;;;;;0.00;0.00;;;;;20.05;59.39;101269.63;5060650;28;45599;-65
2021/08/16 09:23:24;;;;;;;;;1.33;0.00;;;;;20.10;59.63;101269.97;5055175;28;45468;-64
2021/08/16 09:25:53;;;;;;;;;0.00;0.00;;;;;20.15;59.22;101283.66;5055926;27;45435;-64
2021/08/16 09:28:32;;;;;;;;;1.00;0.00;;;;;20.27;59.32;101284.16;5055988;28;45539;-63
2021/08/16 09:31:13;;;;;;;;;1.00;1.00;;;;;20.33;59.18;101277.31;5055423;28;47097;-65
2021/08/16 09:33:38;;;;;;;;;0.00;0.00;;;;;20.45;59.22;101273.34;5055799;28;45298;-64
2021/08/16 09:36:03;;;;;;;;;1.67;0.67;;;;;20.56;58.87;101274.84;5055762;28;45408;-64
2021/08/16 09:38:37;;;;;;;;;2.00;1.00;;;;;20.63;58.58;101278.53;5054581;28;45279;-65
2021/08/16 09:41:04;;;;;;;;;0.00;0.00;;;;;20.73;58.17;101283.72;5055528;28;46889;-64
2021/08/16 09:43:30;;;;;;;;;0.00;0.00;;;;;20.66;58.51;101293.38;5055226;28;45442;-64
2021/08/16 09:45:56;;;;;;;;;0.00;0.00;;;;;20.65;59.07;101286.38;5056810;28;45464;-64
2021/08/16 09:48:24;;;;;;;;;2.33;0.00;;;;;20.59;59.75;101286.03;5055368;28;45503;-68
2021/08/16 09:50:51;;;;;;;;;0.33;0.33;;;;;20.49;60.16;101292.53;5053506;28;46095;-64
2021/08/16 09:53:19;;;;;;;;;1.00;0.00;;;;;20.49;60.04;101304.03;5055131;28;45427;-65
2021/08/16 09:55:47;;;;;;;;;0.00;0.00;;;;;20.65;59.85;101308.53;5055347;28;45320;-64
2021/08/16 09:58:14;;;;;;;;;3.00;0.00;;;;;20.79;60.15;101309.75;5056950;28;45487;-64
2021/08/16 10:00:41;;;;;;;;;0.67;0.67;;;;;20.85;59.68;101306.41;5055304;28;45456;-65
2021/08/16 10:03:08;;;;;;;;;0.00;0.00;;;;;20.92;59.16;101306.56;5057037;28;45334;-64
2021/08/16 10:05:39;;;;;;;;;1.00;1.00;;;;;21.11;59.01;101313.41;5057459;28;45262;-64
2021/08/16 10:08:09;;;;;;;;;1.00;1.00;;;;;21.23;58.28;101306.69;5058499;27;45704;-64
2021/08/16 10:10:36;;;;;;;;;1.67;1.67;;;;;21.33;57.90;101306.50;5058289;28;46524;-65
2021/08/16 10:13:02;;;;;;;;;1.00;1.00;;;;;21.40;58.00;101295.97;5058494;27;45412;-63
2021/08/16 10:15:30;;;;;;;;;3.67;1.00;;;;;21.51;58.08;101292.94;5040658;28;45410;-64
2021/08/16 10:17:57;;;;;;;;;1.00;1.00;;;;;21.56;57.23;101290.59;5058813;28;45415;-64
2021/08/16 10:20:28;;;;;;;;;3.00;2.00;;;;;21.66;57.13;101297.59;5054957;28;46279;-64
2021/08/16 10:22:53;;;;;;;;;2.00;1.00;;;;;21.75;56.98;101294.69;5056544;28;45422;-63
2021/08/16 10:25:19;;;;;;;;;0.33;0.33;;;;;21.82;56.49;101294.84;5060372;28;45375;-63
2021/08/16 10:27:45;;;;;;;;;3.33;0.67;;;;;21.87;56.39;101297.84;5058631;28;45381;-64
2021/08/16 10:30:16;;;;;;;;;0.67;0.67;;;;;21.91;56.33;101303.66;5057594;28;47114;-65
2021/08/16 10:32:42;;;;;;;;;1.00;1.00;;;;;21.97;55.96;101305.63;5057602;28;45403;-65
2021/08/16 10:35:19;;;;;;;;;1.67;1.67;;;;;21.95;55.88;101320.19;5057986;28;45534;-65
2021/08/16 10:37:45;;;;;;;;;1.00;1.00;;;;;21.89;56.35;101329.75;5059812;27;45420;-64
2021/08/16 10:40:16;;;;;;;;;3.00;2.00;;;;;21.80;56.71;101322.78;5058598;28;47074;-64
2021/08/16 10:42:42;;;;;;;;;2.33;0.67;;;;;21.70;57.39;101333.66;5058575;28;46441;-64
2021/08/16 10:45:09;;;;;;;;;3.67;2.00;;;;;21.63;58.07;101336.19;5058367;28;45364;-65
2021/08/16 10:47:37;;;;;;;;;2.00;2.00;;;;;21.58;58.34;101331.34;5057176;28;45679;-65
2021/08/16 10:50:08;;;;;;;;;7.00;1.00;;;;;21.58;58.71;101336.69;5057321;27;46018;-64
2021/08/16 10:52:39;;;;;;;;;1.00;1.00;;;;;21.64;58.17;101331.66;5057410;28;47283;-64
2021/08/16 10:55:10;;;;;;;;;0.00;0.00;;;;;21.74;57.66;101334.97;5058303;28;45506;-65
2021/08/16 10:57:36;;;;;;;;;2.00;1.00;;;;;21.87;57.38;101331.75;5058207;28;45641;-65
2021/08/16 11:00:04;;;;;;;;;2.00;2.00;;;;;21.95;57.60;101337.06;5057894;28;46736;-65
2021/08/16 11:02:30;;;;;;;;;1.00;1.00;;;;;21.97;57.34;101331.56;5057330;28;45416;-65
2021/08/16 11:04:56;;;;;;;;;2.00;2.00;;;;;21.98;58.32;101341.22;5058011;28;45549;-64
2021/08/16 11:07:23;;;;;;;;;1.00;1.00;;;;;21.99;57.42;101342.88;5057654;28;45606;-64
2021/08/16 11:10:04;;;;;;;;;2.33;1.00;;;;;21.88;57.19;101350.28;5057444;28;47069;-64
2021/08/16 11:12:42;;;;;;;;;5.00;2.67;;;;;21.77;57.03;101345.34;5055448;28;45521;-63
2021/08/16 11:15:08;;;;;;;;;1.00;1.00;;;;;21.67;57.27;101350.88;5058842;28;45425;-65
2021/08/16 11:17:34;;;;;;;;;4.00;3.00;;;;;21.58;57.05;101368.78;5057397;28;45571;-64
2021/08/16 11:20:03;;;;;;;;;2.33;2.33;;;;;21.60;56.96;101363.25;5061276;28;46976;-64